Avoca, PA

12:03 AM EDT on April 18, 2015 (GMT -0400)
Exeter, PA | | Change Station
CLOSE
Current Station
Personal Weather Station
Location: Exeter, PA
Elevation: 558 ft
Nearby Weather Stations
Active Advisory: Fire Weather Watch

Elev 558 ft 41.33 °N, 75.83 °W | Updated 15 minutes ago

Scattered Clouds
Scattered Clouds
49.3 °F
Feels Like 49 °F
N
0.0
Wind Variable Wind from SW

Today
High -- | Low -- °F
--% Chance of Precip.
Yesterday
High -- | Low -- °F
Precip. -- in
6:19 AM 7:46 PM
Waning Crescent, 1% visible
Pressure 30.00 in
Visibility 10.0 miles
Clouds Scattered Clouds 6000 ft
Windchill 49 °F
Dew Point 48 °F
Humidity 95%
Rainfall in
Snow Depth Not available.
UV 0 out of 12
Pollen 7.00 out of 12
Air Quality Not available.
Flu Activity Sporadic
METAR KAVP 180354Z AUTO 10006KT 10SM SCT060 13/09 A3000 RMK AO2 SLP158 T01280094

More Conditions Fewer Conditions

Pressure 30.00 in
Visibility 10.0 miles
Clouds Scattered Clouds 6000 ft
Windchill 49 °F
Dew Point 48 °F
Humidity 95%
Rainfall in
Snow Depth Not available.
UV 0 out of 12
Pollen 7.00 out of 12
Air Quality Not available.
Flu Activity Sporadic
METAR KAVP 180354Z AUTO 10006KT 10SM SCT060 13/09 A3000 RMK AO2 SLP158 T01280094

More Conditions Fewer Conditions

10-Day Weather Forecast

Almanac

Astronomy

Apr. 18, 2015 Rise Set
Actual Time
Civil Twilight
Nautical Twilight
Astronomical Twilight
Moon
Length of Visible Light
Length of Day
Tomorrow will be .
, % of the Moon is Illuminated

Today's Extremes

State Highs State Lows

Community

WunderPhotos

Upload Photos

1,814,322 photos uploaded!

WunderBlogs® & News

Nearby

Air Quality

  Air Quality AQ Index Pollutant
Not available.

Snow Depth

Station Depth Elevation

Earthquake Activity

City Distance Mag. Time & Date
Minimum magnitude displayed is 2.5.

Coastal Water Temperatures

Place Temperature

Stations

Nearby Weather Stations

Station Location Temp. Windchill Dew Point Humidity Wind Precip. Elev Updated Type
                   
Fire Weather Watch
Statement as of 3:14 PM EDT on April 17, 2015

... Fire Weather Watch in effect from Saturday afternoon through
Saturday evening for all of central New York and northeast
Pennsylvania...

The National Weather Service in Binghamton has issued a Fire
Weather Watch... which is in effect from Saturday afternoon
through Saturday evening.

* Locations... all of central New York and northeast Pennsylvania.

* Wind... northwest increasing to 15 to 25 mph with gusts over 30
mph Saturday afternoon and early evening.

* Humidity... relative humidities will drop to between 20 and 30
percent Saturday afternoon and early evening.

* Thunderstorms... thunderstorms are not expected.

* Impacts... any fires that develop could spread rapidly. Outdoor
burning is not recommended.

Precautionary/preparedness actions...

A Fire Weather Watch means that critical fire weather conditions
are possible. Listen for later forecasts and possible red flag
warnings.


Djn